LNEPG ENTC-ENSR
Flight info
| Callsign | LNEPG |
|---|---|
| Flight time | 0h 52m |
| Altitude | 1000 |
| Route | DCT HAKOYA DCT RYA DCT BERG DCT BREIVIKA/N0095A015 DCT MOVIKVANN DCT NIPOYA/N0120A035 DCT 694926N0195649E 695833N0201543E 700214N0205910E/N0110A020 DCT REISAFJORDEN DCT OKSFJORDHAMN DCT STRAUMFJORDEN DCT NORDKJOSEN DCT |
| Aircraft | C172/L-SBDGR/C |
Departure
| Time | 2026-04-29 09:03 |
|---|---|
| Airport | Tromsø Airport (ENTC) |
Arrival
| Time | 2026-04-29 09:56 |
|---|---|
| Airport | Sørkjosen Airport (ENSR) |
| Time | Latitude | Longitude | Altitude | Speed | Heading |
|---|---|---|---|---|---|
| 2026-04-29 08:50 | 69.67739 | 18.91971 | 36 ft | 0 kts | 214° |
| 2026-04-29 08:57 | 69.67738 | 18.91971 | 36 ft | 1 kts | 212° |
| 2026-04-29 08:57 | 69.67730 | 18.91909 | 34 ft | 7 kts | 275° |
| 2026-04-29 08:57 | 69.67743 | 18.91747 | 31 ft | 1 kts | 283° |
| 2026-04-29 08:57 | 69.67744 | 18.91747 | 31 ft | 0 kts | 283° |
| 2026-04-29 08:58 | 69.67757 | 18.91586 | 28 ft | 11 kts | 284° |
| 2026-04-29 08:58 | 69.67806 | 18.91541 | 28 ft | 12 kts | 13° |
| 2026-04-29 08:58 | 69.67893 | 18.91597 | 29 ft | 0 kts | 10° |
| 2026-04-29 08:58 | 69.67941 | 18.91630 | 30 ft | 15 kts | 13° |
| 2026-04-29 08:59 | 69.68072 | 18.91718 | 31 ft | 21 kts | 13° |
| 2026-04-29 08:59 | 69.68202 | 18.91805 | 29 ft | 17 kts | 12° |
| 2026-04-29 08:59 | 69.68316 | 18.91878 | 26 ft | 15 kts | 13° |
| 2026-04-29 08:59 | 69.68415 | 18.91943 | 23 ft | 14 kts | 15° |
| 2026-04-29 09:00 | 69.68531 | 18.92024 | 21 ft | 18 kts | 12° |
| 2026-04-29 09:00 | 69.68662 | 18.92111 | 19 ft | 20 kts | 15° |
| 2026-04-29 09:00 | 69.68810 | 18.92209 | 19 ft | 23 kts | 11° |
| 2026-04-29 09:00 | 69.68951 | 18.92304 | 18 ft | 19 kts | 13° |
| 2026-04-29 09:01 | 69.69024 | 18.92371 | 18 ft | 5 kts | 275° |
| 2026-04-29 09:01 | 69.69006 | 18.92341 | 18 ft | 0 kts | 192° |
| 2026-04-29 09:02 | 69.68965 | 18.92313 | 18 ft | 23 kts | 192° |
| 2026-04-29 09:02 | 69.68636 | 18.92087 | 46 ft | 64 kts | 192° |
| 2026-04-29 09:02 | 69.68181 | 18.91774 | 182 ft | 71 kts | 193° |
| 2026-04-29 09:03 | 69.67690 | 18.91445 | 353 ft | 71 kts | 190° |
| 2026-04-29 09:03 | 69.67239 | 18.91167 | 591 ft | 66 kts | 191° |
| 2026-04-29 09:03 | 69.66778 | 18.90858 | 750 ft | 70 kts | 191° |
| 2026-04-29 09:03 | 69.66248 | 18.90501 | 780 ft | 82 kts | 191° |
| 2026-04-29 09:04 | 69.65702 | 18.90056 | 857 ft | 84 kts | 206° |
| 2026-04-29 09:04 | 69.65366 | 18.88629 | 933 ft | 93 kts | 252° |
| 2026-04-29 09:04 | 69.65450 | 18.86727 | 993 ft | 101 kts | 279° |
| 2026-04-29 09:04 | 69.65825 | 18.84902 | 1001 ft | 110 kts | 305° |
| 2026-04-29 09:05 | 69.66391 | 18.83647 | 986 ft | 91 kts | 317° |
| 2026-04-29 09:05 | 69.66756 | 18.82143 | 1001 ft | 94 kts | 286° |
| 2026-04-29 09:05 | 69.66585 | 18.80728 | 1030 ft | 80 kts | 213° |
| 2026-04-29 09:05 | 69.66022 | 18.80030 | 1003 ft | 95 kts | 187° |
| 2026-04-29 09:06 | 69.65801 | 18.79981 | 996 ft | 98 kts | 182° |
| 2026-04-29 09:07 | 69.64630 | 18.79709 | 1010 ft | 81 kts | 185° |
| 2026-04-29 09:07 | 69.64081 | 18.79444 | 997 ft | 79 kts | 192° |
| 2026-04-29 09:08 | 69.63560 | 18.79037 | 1000 ft | 78 kts | 195° |
| 2026-04-29 09:08 | 69.63025 | 18.78497 | 998 ft | 86 kts | 199° |
| 2026-04-29 09:08 | 69.62450 | 18.77920 | 997 ft | 87 kts | 194° |
| 2026-04-29 09:08 | 69.61868 | 18.77424 | 993 ft | 86 kts | 195° |
| 2026-04-29 09:09 | 69.61300 | 18.76878 | 993 ft | 86 kts | 197° |
| 2026-04-29 09:09 | 69.60741 | 18.76363 | 997 ft | 85 kts | 194° |
| 2026-04-29 09:09 | 69.60171 | 18.75862 | 1028 ft | 83 kts | 195° |
| 2026-04-29 09:09 | 69.59625 | 18.75374 | 1022 ft | 86 kts | 195° |
| 2026-04-29 09:10 | 69.59053 | 18.74842 | 1022 ft | 87 kts | 198° |
| 2026-04-29 09:10 | 69.58485 | 18.74261 | 1027 ft | 87 kts | 194° |
| 2026-04-29 09:10 | 69.57893 | 18.73791 | 1026 ft | 88 kts | 193° |
| 2026-04-29 09:10 | 69.57142 | 18.72845 | 1037 ft | 90 kts | 202° |
| 2026-04-29 09:11 | 69.56742 | 18.72642 | 1006 ft | 89 kts | 172° |
| 2026-04-29 09:11 | 69.56237 | 18.73594 | 1056 ft | 93 kts | 127° |
| 2026-04-29 09:11 | 69.56121 | 18.75485 | 1035 ft | 102 kts | 87° |
| 2026-04-29 09:11 | 69.56227 | 18.77471 | 1021 ft | 102 kts | 87° |
| 2026-04-29 09:12 | 69.56335 | 18.79458 | 1018 ft | 101 kts | 87° |
| 2026-04-29 09:12 | 69.56426 | 18.81433 | 1018 ft | 100 kts | 90° |
| 2026-04-29 09:12 | 69.56511 | 18.83404 | 1018 ft | 100 kts | 85° |
| 2026-04-29 09:12 | 69.56641 | 18.85378 | 1016 ft | 100 kts | 85° |
| 2026-04-29 09:13 | 69.56744 | 18.87322 | 1018 ft | 99 kts | 90° |
| 2026-04-29 09:13 | 69.56860 | 18.89283 | 1018 ft | 100 kts | 82° |
| 2026-04-29 09:13 | 69.57018 | 18.91211 | 1017 ft | 98 kts | 83° |
| 2026-04-29 09:13 | 69.57283 | 18.92986 | 1014 ft | 102 kts | 43° |
| 2026-04-29 09:14 | 69.57946 | 18.93715 | 1020 ft | 105 kts | 8° |
| 2026-04-29 09:14 | 69.58678 | 18.93799 | 1019 ft | 105 kts | 356° |
| 2026-04-29 09:14 | 69.59405 | 18.93688 | 1018 ft | 106 kts | 358° |
| 2026-04-29 09:14 | 69.60143 | 18.93642 | 1016 ft | 106 kts | 0° |
| 2026-04-29 09:15 | 69.60875 | 18.93798 | 1012 ft | 106 kts | 6° |
| 2026-04-29 09:15 | 69.61606 | 18.94102 | 1014 ft | 106 kts | 12° |
| 2026-04-29 09:15 | 69.62302 | 18.94688 | 1010 ft | 105 kts | 22° |
| 2026-04-29 09:15 | 69.62978 | 18.95490 | 1011 ft | 104 kts | 31° |
| 2026-04-29 09:16 | 69.63610 | 18.96498 | 1007 ft | 105 kts | 26° |
| 2026-04-29 09:16 | 69.64318 | 18.97002 | 1013 ft | 105 kts | 12° |
| 2026-04-29 09:16 | 69.65044 | 18.97366 | 1011 ft | 106 kts | 9° |
| 2026-04-29 09:16 | 69.65766 | 18.97625 | 1010 ft | 106 kts | 7° |
| 2026-04-29 09:17 | 69.66497 | 18.97824 | 1015 ft | 106 kts | 5° |
| 2026-04-29 09:17 | 69.67245 | 18.97882 | 1016 ft | 107 kts | 359° |
| 2026-04-29 09:17 | 69.67967 | 18.98098 | 1002 ft | 104 kts | 43° |
| 2026-04-29 09:17 | 69.68417 | 18.99606 | 1023 ft | 101 kts | 54° |
| 2026-04-29 09:18 | 69.68813 | 19.01272 | 1079 ft | 100 kts | 66° |
| 2026-04-29 09:18 | 69.69120 | 19.03063 | 1212 ft | 100 kts | 69° |
| 2026-04-29 09:18 | 69.69423 | 19.04852 | 1338 ft | 100 kts | 69° |
| 2026-04-29 09:18 | 69.69730 | 19.06615 | 1454 ft | 97 kts | 65° |
| 2026-04-29 09:19 | 69.70081 | 19.08245 | 1477 ft | 95 kts | 64° |
| 2026-04-29 09:19 | 69.70402 | 19.09902 | 1471 ft | 93 kts | 69° |
| 2026-04-29 09:19 | 69.70686 | 19.11537 | 1456 ft | 90 kts | 69° |
| 2026-04-29 09:19 | 69.71003 | 19.13153 | 1478 ft | 98 kts | 62° |
| 2026-04-29 09:20 | 69.71389 | 19.14854 | 1530 ft | 106 kts | 58° |
| 2026-04-29 09:20 | 69.71886 | 19.16484 | 1519 ft | 110 kts | 50° |
| 2026-04-29 09:20 | 69.72432 | 19.18072 | 1520 ft | 111 kts | 49° |
| 2026-04-29 09:20 | 69.72975 | 19.19634 | 1510 ft | 112 kts | 49° |
| 2026-04-29 09:21 | 69.73539 | 19.21164 | 1517 ft | 111 kts | 52° |
| 2026-04-29 09:21 | 69.74050 | 19.22850 | 1520 ft | 111 kts | 53° |
| 2026-04-29 09:21 | 69.74549 | 19.24532 | 1508 ft | 111 kts | 54° |
| 2026-04-29 09:21 | 69.75096 | 19.26138 | 1511 ft | 112 kts | 47° |
| 2026-04-29 09:22 | 69.75666 | 19.27669 | 1499 ft | 113 kts | 48° |
| 2026-04-29 09:22 | 69.76177 | 19.29343 | 1504 ft | 111 kts | 55° |
| 2026-04-29 09:22 | 69.76695 | 19.30978 | 1508 ft | 110 kts | 48° |
| 2026-04-29 09:22 | 69.77241 | 19.32520 | 1502 ft | 109 kts | 47° |
| 2026-04-29 09:23 | 69.77781 | 19.34044 | 1520 ft | 108 kts | 49° |
| 2026-04-29 09:23 | 69.78301 | 19.35627 | 1508 ft | 110 kts | 51° |
| 2026-04-29 09:23 | 69.78801 | 19.37326 | 1491 ft | 110 kts | 55° |
| 2026-04-29 09:23 | 69.79282 | 19.39051 | 1488 ft | 111 kts | 52° |
| 2026-04-29 09:24 | 69.79813 | 19.40673 | 1495 ft | 111 kts | 50° |
| 2026-04-29 09:24 | 69.80315 | 19.42328 | 1452 ft | 112 kts | 54° |
| 2026-04-29 09:24 | 69.80816 | 19.44034 | 1461 ft | 110 kts | 52° |
| 2026-04-29 09:24 | 69.81345 | 19.45654 | 1455 ft | 111 kts | 50° |
| 2026-04-29 09:25 | 69.81818 | 19.47345 | 1478 ft | 108 kts | 62° |
| 2026-04-29 09:25 | 69.82138 | 19.49245 | 1485 ft | 104 kts | 81° |
| 2026-04-29 09:25 | 69.82280 | 19.51310 | 1477 ft | 105 kts | 85° |
| 2026-04-29 09:25 | 69.82310 | 19.53408 | 1461 ft | 105 kts | 98° |
| 2026-04-29 09:26 | 69.82255 | 19.55500 | 1601 ft | 103 kts | 96° |
| 2026-04-29 09:26 | 69.82259 | 19.57534 | 1809 ft | 98 kts | 94° |
| 2026-04-29 09:26 | 69.82262 | 19.59463 | 2029 ft | 95 kts | 95° |
| 2026-04-29 09:26 | 69.82284 | 19.61333 | 2226 ft | 94 kts | 91° |
| 2026-04-29 09:27 | 69.82326 | 19.63201 | 2430 ft | 92 kts | 91° |
| 2026-04-29 09:27 | 69.82362 | 19.65061 | 2636 ft | 91 kts | 96° |
| 2026-04-29 09:27 | 69.82346 | 19.66884 | 2854 ft | 90 kts | 97° |
| 2026-04-29 09:27 | 69.82322 | 19.68708 | 3073 ft | 90 kts | 97° |
| 2026-04-29 09:28 | 69.82326 | 19.70527 | 3286 ft | 90 kts | 95° |
| 2026-04-29 09:28 | 69.82334 | 19.72384 | 3435 ft | 97 kts | 93° |
| 2026-04-29 09:28 | 69.82387 | 19.74463 | 3458 ft | 106 kts | 91° |
| 2026-04-29 09:28 | 69.82400 | 19.76528 | 3430 ft | 98 kts | 94° |
| 2026-04-29 09:29 | 69.82415 | 19.78431 | 3427 ft | 92 kts | 94° |
| 2026-04-29 09:29 | 69.82422 | 19.82001 | 3438 ft | 87 kts | 92° |
| 2026-04-29 09:29 | 69.82387 | 19.83974 | 3444 ft | 106 kts | 98° |
| 2026-04-29 09:30 | 69.82345 | 19.86191 | 3428 ft | 112 kts | 93° |
| 2026-04-29 09:30 | 69.82339 | 19.88431 | 3429 ft | 110 kts | 97° |
| 2026-04-29 09:30 | 69.82408 | 19.90651 | 3436 ft | 110 kts | 82° |
| 2026-04-29 09:30 | 69.82579 | 19.92905 | 3449 ft | 118 kts | 79° |
| 2026-04-29 09:31 | 69.83038 | 19.94977 | 3433 ft | 127 kts | 44° |
| 2026-04-29 09:31 | 69.83710 | 19.96662 | 3440 ft | 129 kts | 44° |
| 2026-04-29 09:31 | 69.84431 | 19.98270 | 3428 ft | 131 kts | 40° |
| 2026-04-29 09:31 | 69.85128 | 19.99977 | 3453 ft | 128 kts | 42° |
| 2026-04-29 09:32 | 69.85814 | 20.01477 | 3439 ft | 121 kts | 38° |
| 2026-04-29 09:32 | 69.86531 | 20.02893 | 3449 ft | 126 kts | 34° |
| 2026-04-29 09:32 | 69.87287 | 20.04283 | 3479 ft | 128 kts | 34° |
| 2026-04-29 09:32 | 69.88006 | 20.05846 | 3469 ft | 131 kts | 40° |
| 2026-04-29 09:33 | 69.88716 | 20.07512 | 3467 ft | 131 kts | 40° |
| 2026-04-29 09:33 | 69.89479 | 20.08968 | 3471 ft | 131 kts | 29° |
| 2026-04-29 09:33 | 69.90306 | 20.10099 | 3442 ft | 133 kts | 25° |
| 2026-04-29 09:33 | 69.91117 | 20.11314 | 3468 ft | 130 kts | 30° |
| 2026-04-29 09:34 | 69.91916 | 20.12595 | 3470 ft | 131 kts | 30° |
| 2026-04-29 09:34 | 69.92701 | 20.13931 | 3454 ft | 131 kts | 36° |
| 2026-04-29 09:34 | 69.93404 | 20.15593 | 3470 ft | 129 kts | 46° |
| 2026-04-29 09:34 | 69.94040 | 20.17471 | 3462 ft | 131 kts | 48° |
| 2026-04-29 09:35 | 69.94693 | 20.19325 | 3445 ft | 133 kts | 40° |
| 2026-04-29 09:35 | 69.95456 | 20.20824 | 3445 ft | 132 kts | 35° |
| 2026-04-29 09:35 | 69.96158 | 20.22507 | 3449 ft | 131 kts | 46° |
| 2026-04-29 09:35 | 69.96738 | 20.24531 | 3469 ft | 129 kts | 56° |
| 2026-04-29 09:36 | 69.97237 | 20.26705 | 3455 ft | 128 kts | 67° |
| 2026-04-29 09:36 | 69.97546 | 20.29093 | 3481 ft | 126 kts | 73° |
| 2026-04-29 09:36 | 69.97865 | 20.31477 | 3509 ft | 127 kts | 69° |
| 2026-04-29 09:36 | 69.98218 | 20.33857 | 3501 ft | 129 kts | 69° |
| 2026-04-29 09:37 | 69.98576 | 20.36249 | 3503 ft | 128 kts | 68° |
| 2026-04-29 09:37 | 69.98872 | 20.38707 | 3491 ft | 128 kts | 75° |
| 2026-04-29 09:37 | 69.99140 | 20.41128 | 3460 ft | 125 kts | 75° |
| 2026-04-29 09:37 | 69.99377 | 20.43496 | 3499 ft | 118 kts | 76° |
| 2026-04-29 09:38 | 69.99625 | 20.45772 | 3512 ft | 119 kts | 72° |
| 2026-04-29 09:38 | 69.99908 | 20.48050 | 3477 ft | 122 kts | 72° |
| 2026-04-29 09:38 | 70.00223 | 20.50358 | 3473 ft | 119 kts | 70° |
| 2026-04-29 09:38 | 70.00531 | 20.52553 | 3507 ft | 117 kts | 70° |
| 2026-04-29 09:39 | 70.00846 | 20.54754 | 3519 ft | 118 kts | 69° |
| 2026-04-29 09:39 | 70.01186 | 20.56944 | 3526 ft | 119 kts | 68° |
| 2026-04-29 09:39 | 70.01533 | 20.59166 | 3490 ft | 122 kts | 68° |
| 2026-04-29 09:39 | 70.01882 | 20.61439 | 3451 ft | 122 kts | 70° |
| 2026-04-29 09:40 | 70.02172 | 20.63741 | 3501 ft | 118 kts | 72° |
| 2026-04-29 09:40 | 70.02451 | 20.65974 | 3490 ft | 118 kts | 71° |
| 2026-04-29 09:40 | 70.02742 | 20.68224 | 3472 ft | 119 kts | 72° |
| 2026-04-29 09:40 | 70.03031 | 20.70480 | 3444 ft | 119 kts | 72° |
| 2026-04-29 09:41 | 70.03324 | 20.72768 | 3418 ft | 119 kts | 72° |
| 2026-04-29 09:41 | 70.03614 | 20.74991 | 3480 ft | 116 kts | 71° |
| 2026-04-29 09:41 | 70.03832 | 20.77239 | 3511 ft | 114 kts | 81° |
| 2026-04-29 09:41 | 70.03889 | 20.79531 | 3515 ft | 114 kts | 94° |
| 2026-04-29 09:42 | 70.03863 | 20.81870 | 3506 ft | 114 kts | 94° |
| 2026-04-29 09:42 | 70.03832 | 20.84215 | 3454 ft | 117 kts | 95° |
| 2026-04-29 09:42 | 70.03803 | 20.86561 | 3482 ft | 115 kts | 95° |
| 2026-04-29 09:42 | 70.03783 | 20.88885 | 3510 ft | 114 kts | 94° |
| 2026-04-29 09:43 | 70.03752 | 20.91219 | 3505 ft | 115 kts | 98° |
| 2026-04-29 09:43 | 70.03683 | 20.93551 | 3492 ft | 116 kts | 93° |
| 2026-04-29 09:43 | 70.03672 | 20.95923 | 3480 ft | 117 kts | 94° |
| 2026-04-29 09:43 | 70.03584 | 20.98293 | 3467 ft | 117 kts | 101° |
| 2026-04-29 09:44 | 70.03275 | 21.00548 | 3225 ft | 121 kts | 133° |
| 2026-04-29 09:44 | 70.02678 | 21.02141 | 2988 ft | 117 kts | 142° |
| 2026-04-29 09:44 | 70.02038 | 21.03588 | 2748 ft | 115 kts | 144° |
| 2026-04-29 09:44 | 70.01354 | 21.04781 | 2511 ft | 114 kts | 151° |
| 2026-04-29 09:45 | 70.00700 | 21.05887 | 2270 ft | 109 kts | 145° |
| 2026-04-29 09:45 | 70.00086 | 21.07187 | 2168 ft | 110 kts | 143° |
| 2026-04-29 09:45 | 69.99453 | 21.08480 | 2061 ft | 112 kts | 145° |
| 2026-04-29 09:45 | 69.98828 | 21.09786 | 1988 ft | 111 kts | 146° |
| 2026-04-29 09:46 | 69.98177 | 21.11034 | 1975 ft | 114 kts | 148° |
| 2026-04-29 09:46 | 69.97483 | 21.12224 | 1968 ft | 115 kts | 149° |
| 2026-04-29 09:46 | 69.96847 | 21.13526 | 1968 ft | 111 kts | 143° |
| 2026-04-29 09:46 | 69.96154 | 21.14471 | 1993 ft | 108 kts | 159° |
| 2026-04-29 09:47 | 69.95441 | 21.15089 | 2008 ft | 109 kts | 163° |
| 2026-04-29 09:47 | 69.94714 | 21.15677 | 2011 ft | 109 kts | 163° |
| 2026-04-29 09:47 | 69.93978 | 21.16276 | 2012 ft | 109 kts | 162° |
| 2026-04-29 09:47 | 69.93262 | 21.16924 | 2015 ft | 109 kts | 164° |
| 2026-04-29 09:48 | 69.92533 | 21.17433 | 2028 ft | 108 kts | 165° |
| 2026-04-29 09:48 | 69.91795 | 21.17960 | 2034 ft | 108 kts | 163° |
| 2026-04-29 09:48 | 69.91078 | 21.18558 | 2036 ft | 108 kts | 162° |
| 2026-04-29 09:48 | 69.90342 | 21.18965 | 2032 ft | 109 kts | 174° |
| 2026-04-29 09:49 | 69.89590 | 21.19027 | 2032 ft | 109 kts | 177° |
| 2026-04-29 09:49 | 69.88828 | 21.19002 | 2030 ft | 108 kts | 180° |
| 2026-04-29 09:49 | 69.88080 | 21.18896 | 2035 ft | 108 kts | 180° |
| 2026-04-29 09:49 | 69.87330 | 21.18787 | 2033 ft | 109 kts | 180° |
| 2026-04-29 09:50 | 69.86568 | 21.18801 | 2036 ft | 109 kts | 176° |
| 2026-04-29 09:50 | 69.85818 | 21.18859 | 2036 ft | 109 kts | 176° |
| 2026-04-29 09:50 | 69.85069 | 21.18904 | 2032 ft | 107 kts | 180° |
| 2026-04-29 09:50 | 69.84351 | 21.18497 | 2027 ft | 107 kts | 205° |
| 2026-04-29 09:51 | 69.83746 | 21.17236 | 2034 ft | 107 kts | 217° |
| 2026-04-29 09:51 | 69.83185 | 21.15848 | 2028 ft | 107 kts | 220° |
| 2026-04-29 09:51 | 69.82637 | 21.14366 | 2030 ft | 107 kts | 220° |
| 2026-04-29 09:51 | 69.82095 | 21.12891 | 2030 ft | 107 kts | 220° |
| 2026-04-29 09:52 | 69.81553 | 21.11411 | 2034 ft | 107 kts | 220° |
| 2026-04-29 09:52 | 69.81022 | 21.09887 | 2039 ft | 108 kts | 223° |
| 2026-04-29 09:52 | 69.80485 | 21.08264 | 2049 ft | 114 kts | 224° |
| 2026-04-29 09:52 | 69.79939 | 21.06604 | 2044 ft | 110 kts | 224° |
| 2026-04-29 09:53 | 69.79439 | 21.04976 | 1900 ft | 113 kts | 235° |
| 2026-04-29 09:53 | 69.79137 | 21.02992 | 1604 ft | 105 kts | 246° |
| 2026-04-29 09:53 | 69.78985 | 21.01093 | 1398 ft | 94 kts | 272° |
| 2026-04-29 09:53 | 69.79310 | 20.99629 | 1281 ft | 89 kts | 326° |
| 2026-04-29 09:54 | 69.79842 | 20.98754 | 1154 ft | 88 kts | 331° |
| 2026-04-29 09:54 | 69.80384 | 20.97900 | 1068 ft | 86 kts | 333° |
| 2026-04-29 09:54 | 69.80898 | 20.97029 | 990 ft | 86 kts | 322° |
| 2026-04-29 09:54 | 69.81174 | 20.95589 | 838 ft | 84 kts | 263° |
| 2026-04-29 09:55 | 69.80942 | 20.94095 | 664 ft | 83 kts | 226° |
| 2026-04-29 09:55 | 69.80446 | 20.93604 | 523 ft | 71 kts | 163° |
| 2026-04-29 09:55 | 69.80001 | 20.94124 | 386 ft | 70 kts | 157° |
| 2026-04-29 09:55 | 69.79585 | 20.94706 | 209 ft | 63 kts | 156° |
| 2026-04-29 09:56 | 69.79191 | 20.95255 | 50 ft | 60 kts | 155° |
| 2026-04-29 09:56 | 69.78865 | 20.95689 | 3 ft | 41 kts | 154° |
| 2026-04-29 09:56 | 69.78662 | 20.95976 | 3 ft | 20 kts | 153° |
| 2026-04-29 09:56 | 69.78601 | 20.95984 | 3 ft | 5 kts | 245° |
| 2026-04-29 09:57 | 69.78588 | 20.95906 | 3 ft | 6 kts | 243° |
| 2026-04-29 09:57 | 69.78597 | 20.95793 | 3 ft | 0 kts | 360° |
| 2026-04-29 09:57 | 69.78605 | 20.95817 | 3 ft | 0 kts | 66° |